sensor_id;sensor_type;location;lat;lon;timestamp;P1;durP1;ratioP1;P2;durP2;ratioP2
69900;SDS011;57183;50.930;5.406;2022-10-17T00:00:42;8.15;;;7.38;;
69900;SDS011;57183;50.930;5.406;2022-10-17T00:03:08;8.60;;;7.57;;
69900;SDS011;57183;50.930;5.406;2022-10-17T00:05:37;8.90;;;8.00;;
69900;SDS011;57183;50.930;5.406;2022-10-17T00:08:07;8.77;;;7.18;;
69900;SDS011;57183;50.930;5.406;2022-10-17T00:10:34;17.50;;;9.18;;
69900;SDS011;57183;50.930;5.406;2022-10-17T00:13:00;7.38;;;6.45;;
69900;SDS011;57183;50.930;5.406;2022-10-17T00:15:25;7.90;;;7.05;;
69900;SDS011;57183;50.930;5.406;2022-10-17T00:17:51;6.35;;;5.85;;
69900;SDS011;57183;50.930;5.406;2022-10-17T00:20:17;8.27;;;7.25;;
69900;SDS011;57183;50.930;5.406;2022-10-17T00:22:43;11.27;;;9.13;;
69900;SDS011;57183;50.930;5.406;2022-10-17T00:25:09;13.50;;;11.10;;
69900;SDS011;57183;50.930;5.406;2022-10-17T00:27:36;12.55;;;9.95;;
69900;SDS011;57183;50.930;5.406;2022-10-17T00:30:04;10.40;;;9.40;;
69900;SDS011;57183;50.930;5.406;2022-10-17T00:32:31;10.55;;;9.20;;
69900;SDS011;57183;50.930;5.406;2022-10-17T00:34:57;9.25;;;8.43;;
69900;SDS011;57183;50.930;5.406;2022-10-17T00:37:23;10.75;;;9.48;;
69900;SDS011;57183;50.930;5.406;2022-10-17T00:39:49;9.80;;;7.80;;
69900;SDS011;57183;50.930;5.406;2022-10-17T00:42:14;9.35;;;8.55;;
69900;SDS011;57183;50.930;5.406;2022-10-17T00:47:10;10.02;;;9.10;;
69900;SDS011;57183;50.930;5.406;2022-10-17T00:49:39;9.27;;;8.30;;
69900;SDS011;57183;50.930;5.406;2022-10-17T00:52:07;10.30;;;9.30;;
69900;SDS011;57183;50.930;5.406;2022-10-17T00:54:37;12.18;;;10.98;;
69900;SDS011;57183;50.930;5.406;2022-10-17T00:57:07;11.13;;;10.05;;
69900;SDS011;57183;50.930;5.406;2022-10-17T00:59:35;10.55;;;8.63;;
69900;SDS011;57183;50.930;5.406;2022-10-17T01:02:04;12.98;;;9.55;;
69900;SDS011;57183;50.930;5.406;2022-10-17T01:04:32;12.27;;;10.60;;
69900;SDS011;57183;50.930;5.406;2022-10-17T01:06:57;14.32;;;10.90;;
69900;SDS011;57183;50.930;5.406;2022-10-17T01:09:23;15.90;;;12.38;;
69900;SDS011;57183;50.930;5.406;2022-10-17T01:11:55;10.43;;;9.43;;
69900;SDS011;57183;50.930;5.406;2022-10-17T01:17:36;13.13;;;11.73;;
69900;SDS011;57183;50.930;5.406;2022-10-17T01:32:00;13.85;;;9.68;;
69900;SDS011;57183;50.930;5.406;2022-10-17T01:34:32;9.98;;;8.98;;
69900;SDS011;57183;50.930;5.406;2022-10-17T01:48:03;12.98;;;10.75;;
69900;SDS011;57183;50.930;5.406;2022-10-17T01:50:33;13.07;;;10.18;;
69900;SDS011;57183;50.930;5.406;2022-10-17T01:53:09;11.18;;;9.50;;
69900;SDS011;57183;50.930;5.406;2022-10-17T01:58:12;12.27;;;9.35;;
69900;SDS011;57183;50.930;5.406;2022-10-17T02:00:45;10.65;;;8.73;;
69900;SDS011;57183;50.930;5.406;2022-10-17T02:03:13;10.45;;;9.10;;
69900;SDS011;57183;50.930;5.406;2022-10-17T02:05:42;15.75;;;10.02;;
69900;SDS011;57183;50.930;5.406;2022-10-17T02:08:08;17.95;;;11.63;;
69900;SDS011;57183;50.930;5.406;2022-10-17T02:13:14;12.30;;;9.75;;
69900;SDS011;57183;50.930;5.406;2022-10-17T02:16:03;12.82;;;10.00;;
69900;SDS011;57183;50.930;5.406;2022-10-17T02:26:52;15.18;;;10.48;;
69900;SDS011;57183;50.930;5.406;2022-10-17T02:29:29;14.13;;;10.20;;
69900;SDS011;57183;50.930;5.406;2022-10-17T02:32:11;13.88;;;10.98;;
69900;SDS011;57183;50.930;5.406;2022-10-17T02:34:45;13.80;;;10.63;;
69900;SDS011;57183;50.930;5.406;2022-10-17T02:37:14;10.77;;;9.70;;
69900;SDS011;57183;50.930;5.406;2022-10-17T02:39:44;13.32;;;9.32;;
69900;SDS011;57183;50.930;5.406;2022-10-17T02:42:12;11.57;;;9.38;;
69900;SDS011;57183;50.930;5.406;2022-10-17T02:44:39;15.13;;;9.98;;
69900;SDS011;57183;50.930;5.406;2022-10-17T02:47:12;15.50;;;10.02;;
69900;SDS011;57183;50.930;5.406;2022-10-17T02:49:53;17.50;;;10.57;;
69900;SDS011;57183;50.930;5.406;2022-10-17T03:00:17;12.57;;;9.30;;
69900;SDS011;57183;50.930;5.406;2022-10-17T03:02:45;14.98;;;8.15;;
69900;SDS011;57183;50.930;5.406;2022-10-17T03:05:15;12.35;;;8.93;;
69900;SDS011;57183;50.930;5.406;2022-10-17T03:07:42;13.27;;;8.32;;
69900;SDS011;57183;50.930;5.406;2022-10-17T03:10:08;12.63;;;8.38;;
69900;SDS011;57183;50.930;5.406;2022-10-17T03:12:34;11.10;;;8.32;;
69900;SDS011;57183;50.930;5.406;2022-10-17T03:15:00;10.02;;;8.98;;
69900;SDS011;57183;50.930;5.406;2022-10-17T03:17:26;11.00;;;8.15;;
69900;SDS011;57183;50.930;5.406;2022-10-17T03:19:51;11.60;;;8.65;;
69900;SDS011;57183;50.930;5.406;2022-10-17T03:22:17;9.27;;;8.23;;
69900;SDS011;57183;50.930;5.406;2022-10-17T03:24:43;13.20;;;7.93;;
69900;SDS011;57183;50.930;5.406;2022-10-17T03:27:08;11.02;;;8.13;;
69900;SDS011;57183;50.930;5.406;2022-10-17T03:29:35;18.65;;;10.75;;
69900;SDS011;57183;50.930;5.406;2022-10-17T03:32:00;11.65;;;8.48;;
69900;SDS011;57183;50.930;5.406;2022-10-17T03:34:26;11.68;;;7.18;;
69900;SDS011;57183;50.930;5.406;2022-10-17T03:36:51;11.45;;;7.82;;
69900;SDS011;57183;50.930;5.406;2022-10-17T03:39:17;8.20;;;7.40;;
69900;SDS011;57183;50.930;5.406;2022-10-17T03:41:43;9.55;;;7.40;;
69900;SDS011;57183;50.930;5.406;2022-10-17T03:44:08;14.57;;;7.55;;
69900;SDS011;57183;50.930;5.406;2022-10-17T03:46:34;10.82;;;7.43;;
69900;SDS011;57183;50.930;5.406;2022-10-17T03:49:00;9.18;;;7.72;;
69900;SDS011;57183;50.930;5.406;2022-10-17T03:51:25;11.50;;;7.97;;
69900;SDS011;57183;50.930;5.406;2022-10-17T03:53:51;9.52;;;7.85;;
69900;SDS011;57183;50.930;5.406;2022-10-17T03:58:44;8.60;;;7.43;;
69900;SDS011;57183;50.930;5.406;2022-10-17T04:01:13;10.80;;;7.15;;
69900;SDS011;57183;50.930;5.406;2022-10-17T04:03:40;8.90;;;7.53;;
69900;SDS011;57183;50.930;5.406;2022-10-17T04:06:06;12.13;;;8.02;;
69900;SDS011;57183;50.930;5.406;2022-10-17T04:08:34;8.75;;;7.75;;
69900;SDS011;57183;50.930;5.406;2022-10-17T04:11:00;9.23;;;7.90;;
69900;SDS011;57183;50.930;5.406;2022-10-17T04:13:27;11.77;;;7.88;;
69900;SDS011;57183;50.930;5.406;2022-10-17T04:15:57;11.40;;;7.82;;
69900;SDS011;57183;50.930;5.406;2022-10-17T04:18:24;8.95;;;7.82;;
69900;SDS011;57183;50.930;5.406;2022-10-17T04:20:50;8.38;;;7.65;;
69900;SDS011;57183;50.930;5.406;2022-10-17T04:23:17;10.93;;;8.52;;
69900;SDS011;57183;50.930;5.406;2022-10-17T04:25:42;8.63;;;7.70;;
69900;SDS011;57183;50.930;5.406;2022-10-17T04:28:08;8.23;;;7.43;;
69900;SDS011;57183;50.930;5.406;2022-10-17T04:30:34;10.95;;;7.90;;
69900;SDS011;57183;50.930;5.406;2022-10-17T04:33:00;12.90;;;7.20;;
69900;SDS011;57183;50.930;5.406;2022-10-17T04:35:26;13.07;;;7.30;;
69900;SDS011;57183;50.930;5.406;2022-10-17T04:37:51;9.27;;;7.95;;
69900;SDS011;57183;50.930;5.406;2022-10-17T04:40:17;9.30;;;7.15;;
69900;SDS011;57183;50.930;5.406;2022-10-17T04:42:43;8.65;;;7.75;;
69900;SDS011;57183;50.930;5.406;2022-10-17T04:45:08;9.23;;;7.63;;
69900;SDS011;57183;50.930;5.406;2022-10-17T04:47:34;12.15;;;7.90;;
69900;SDS011;57183;50.930;5.406;2022-10-17T04:50:00;12.60;;;8.13;;
69900;SDS011;57183;50.930;5.406;2022-10-17T04:52:26;13.93;;;8.30;;
69900;SDS011;57183;50.930;5.406;2022-10-17T04:54:51;10.00;;;7.50;;
69900;SDS011;57183;50.930;5.406;2022-10-17T04:57:17;10.20;;;7.05;;
69900;SDS011;57183;50.930;5.406;2022-10-17T04:59:44;9.43;;;8.10;;
69900;SDS011;57183;50.930;5.406;2022-10-17T05:02:10;10.35;;;7.78;;
69900;SDS011;57183;50.930;5.406;2022-10-17T05:04:36;9.27;;;7.25;;
69900;SDS011;57183;50.930;5.406;2022-10-17T05:07:01;7.43;;;6.70;;
69900;SDS011;57183;50.930;5.406;2022-10-17T05:09:28;10.07;;;8.20;;
69900;SDS011;57183;50.930;5.406;2022-10-17T05:11:54;11.93;;;7.15;;
69900;SDS011;57183;50.930;5.406;2022-10-17T05:14:20;10.15;;;7.20;;
69900;SDS011;57183;50.930;5.406;2022-10-17T05:16:45;12.10;;;7.63;;
69900;SDS011;57183;50.930;5.406;2022-10-17T05:19:11;12.05;;;6.70;;
69900;SDS011;57183;50.930;5.406;2022-10-17T05:21:37;10.35;;;7.28;;
69900;SDS011;57183;50.930;5.406;2022-10-17T05:24:06;11.15;;;7.50;;
69900;SDS011;57183;50.930;5.406;2022-10-17T05:26:33;8.95;;;7.28;;
69900;SDS011;57183;50.930;5.406;2022-10-17T05:29:00;8.77;;;6.57;;
69900;SDS011;57183;50.930;5.406;2022-10-17T05:31:27;9.57;;;6.70;;
69900;SDS011;57183;50.930;5.406;2022-10-17T05:33:54;8.07;;;6.57;;
69900;SDS011;57183;50.930;5.406;2022-10-17T05:36:20;9.55;;;7.38;;
69900;SDS011;57183;50.930;5.406;2022-10-17T05:38:50;9.00;;;6.05;;
69900;SDS011;57183;50.930;5.406;2022-10-17T05:41:16;9.48;;;6.28;;
69900;SDS011;57183;50.930;5.406;2022-10-17T05:43:42;8.05;;;6.05;;
69900;SDS011;57183;50.930;5.406;2022-10-17T05:46:08;9.52;;;6.55;;
69900;SDS011;57183;50.930;5.406;2022-10-17T05:48:34;6.85;;;5.88;;
69900;SDS011;57183;50.930;5.406;2022-10-17T05:51:02;9.85;;;7.20;;
69900;SDS011;57183;50.930;5.406;2022-10-17T05:53:30;8.02;;;6.68;;
69900;SDS011;57183;50.930;5.406;2022-10-17T05:55:57;7.80;;;5.82;;
69900;SDS011;57183;50.930;5.406;2022-10-17T05:58:24;9.80;;;5.85;;
69900;SDS011;57183;50.930;5.406;2022-10-17T06:00:50;8.32;;;5.35;;
69900;SDS011;57183;50.930;5.406;2022-10-17T06:03:16;9.45;;;5.63;;
69900;SDS011;57183;50.930;5.406;2022-10-17T06:05:41;9.32;;;5.70;;
69900;SDS011;57183;50.930;5.406;2022-10-17T06:08:07;6.57;;;5.95;;
69900;SDS011;57183;50.930;5.406;2022-10-17T06:10:33;8.43;;;5.93;;
69900;SDS011;57183;50.930;5.406;2022-10-17T06:12:58;11.77;;;6.00;;
69900;SDS011;57183;50.930;5.406;2022-10-17T06:15:24;10.45;;;5.65;;
69900;SDS011;57183;50.930;5.406;2022-10-17T06:17:49;9.10;;;6.30;;
69900;SDS011;57183;50.930;5.406;2022-10-17T06:20:15;10.00;;;5.38;;
69900;SDS011;57183;50.930;5.406;2022-10-17T06:22:41;8.30;;;5.20;;
69900;SDS011;57183;50.930;5.406;2022-10-17T06:25:07;6.93;;;5.53;;
69900;SDS011;57183;50.930;5.406;2022-10-17T06:27:33;11.90;;;5.20;;
69900;SDS011;57183;50.930;5.406;2022-10-17T06:29:59;12.77;;;5.72;;
69900;SDS011;57183;50.930;5.406;2022-10-17T06:32:24;9.38;;;5.55;;
69900;SDS011;57183;50.930;5.406;2022-10-17T06:34:50;5.75;;;4.85;;
69900;SDS011;57183;50.930;5.406;2022-10-17T06:37:16;7.53;;;5.80;;
69900;SDS011;57183;50.930;5.406;2022-10-17T06:39:41;7.35;;;5.53;;
69900;SDS011;57183;50.930;5.406;2022-10-17T06:42:07;10.98;;;5.90;;
69900;SDS011;57183;50.930;5.406;2022-10-17T06:44:33;12.18;;;6.38;;
69900;SDS011;57183;50.930;5.406;2022-10-17T06:46:58;7.22;;;5.22;;
69900;SDS011;57183;50.930;5.406;2022-10-17T06:49:25;9.20;;;5.68;;
69900;SDS011;57183;50.930;5.406;2022-10-17T06:51:51;9.82;;;6.15;;
69900;SDS011;57183;50.930;5.406;2022-10-17T06:54:17;8.90;;;5.45;;
69900;SDS011;57183;50.930;5.406;2022-10-17T06:56:43;11.23;;;5.40;;
69900;SDS011;57183;50.930;5.406;2022-10-17T06:59:09;13.95;;;4.82;;
69900;SDS011;57183;50.930;5.406;2022-10-17T07:01:35;6.07;;;4.68;;
69900;SDS011;57183;50.930;5.406;2022-10-17T07:04:01;10.07;;;5.00;;
69900;SDS011;57183;50.930;5.406;2022-10-17T07:06:27;6.72;;;5.28;;
69900;SDS011;57183;50.930;5.406;2022-10-17T07:08:52;6.72;;;4.70;;
69900;SDS011;57183;50.930;5.406;2022-10-17T07:11:20;5.93;;;4.18;;
69900;SDS011;57183;50.930;5.406;2022-10-17T07:13:47;7.75;;;4.38;;
69900;SDS011;57183;50.930;5.406;2022-10-17T07:16:13;7.20;;;4.20;;
69900;SDS011;57183;50.930;5.406;2022-10-17T07:18:40;6.30;;;4.78;;
69900;SDS011;57183;50.930;5.406;2022-10-17T07:21:06;7.00;;;5.50;;
69900;SDS011;57183;50.930;5.406;2022-10-17T07:23:33;6.47;;;3.90;;
69900;SDS011;57183;50.930;5.406;2022-10-17T07:26:01;10.52;;;4.53;;
69900;SDS011;57183;50.930;5.406;2022-10-17T07:28:31;6.72;;;3.88;;
69900;SDS011;57183;50.930;5.406;2022-10-17T07:31:02;7.68;;;3.72;;
69900;SDS011;57183;50.930;5.406;2022-10-17T07:33:31;4.63;;;3.80;;
69900;SDS011;57183;50.930;5.406;2022-10-17T07:35:58;7.22;;;4.55;;
69900;SDS011;57183;50.930;5.406;2022-10-17T07:38:25;7.65;;;4.25;;
69900;SDS011;57183;50.930;5.406;2022-10-17T07:40:55;6.55;;;3.88;;
69900;SDS011;57183;50.930;5.406;2022-10-17T07:43:22;6.60;;;4.53;;
69900;SDS011;57183;50.930;5.406;2022-10-17T07:45:49;6.38;;;3.97;;
69900;SDS011;57183;50.930;5.406;2022-10-17T07:48:15;5.63;;;4.35;;
69900;SDS011;57183;50.930;5.406;2022-10-17T07:50:41;11.07;;;4.43;;
69900;SDS011;57183;50.930;5.406;2022-10-17T07:53:06;5.03;;;4.10;;
69900;SDS011;57183;50.930;5.406;2022-10-17T07:55:32;10.25;;;3.58;;
69900;SDS011;57183;50.930;5.406;2022-10-17T07:57:58;5.53;;;3.70;;
69900;SDS011;57183;50.930;5.406;2022-10-17T08:00:26;7.88;;;3.33;;
69900;SDS011;57183;50.930;5.406;2022-10-17T08:02:52;3.70;;;3.33;;
69900;SDS011;57183;50.930;5.406;2022-10-17T08:05:17;4.68;;;3.28;;
69900;SDS011;57183;50.930;5.406;2022-10-17T08:07:43;3.88;;;3.35;;
69900;SDS011;57183;50.930;5.406;2022-10-17T08:10:10;5.35;;;3.13;;
69900;SDS011;57183;50.930;5.406;2022-10-17T08:12:37;6.45;;;3.42;;
69900;SDS011;57183;50.930;5.406;2022-10-17T08:15:04;7.72;;;3.72;;
69900;SDS011;57183;50.930;5.406;2022-10-17T08:17:30;6.63;;;3.58;;
69900;SDS011;57183;50.930;5.406;2022-10-17T08:19:59;4.63;;;3.70;;
69900;SDS011;57183;50.930;5.406;2022-10-17T08:22:24;3.88;;;2.75;;
69900;SDS011;57183;50.930;5.406;2022-10-17T08:24:50;4.80;;;3.15;;
69900;SDS011;57183;50.930;5.406;2022-10-17T08:27:16;4.55;;;3.47;;
69900;SDS011;57183;50.930;5.406;2022-10-17T08:29:47;7.32;;;3.13;;
69900;SDS011;57183;50.930;5.406;2022-10-17T08:32:17;8.27;;;3.60;;
69900;SDS011;57183;50.930;5.406;2022-10-17T08:34:46;6.55;;;3.10;;
69900;SDS011;57183;50.930;5.406;2022-10-17T08:37:12;3.83;;;3.33;;
69900;SDS011;57183;50.930;5.406;2022-10-17T08:39:39;7.03;;;3.47;;
69900;SDS011;57183;50.930;5.406;2022-10-17T08:44:39;11.63;;;3.75;;
69900;SDS011;57183;50.930;5.406;2022-10-17T08:47:33;4.90;;;3.22;;
69900;SDS011;57183;50.930;5.406;2022-10-17T08:50:02;5.63;;;3.42;;
69900;SDS011;57183;50.930;5.406;2022-10-17T08:55:16;10.57;;;3.97;;
69900;SDS011;57183;50.930;5.406;2022-10-17T08:58:02;5.40;;;4.05;;
69900;SDS011;57183;50.930;5.406;2022-10-17T09:00:40;9.30;;;3.80;;
69900;SDS011;57183;50.930;5.406;2022-10-17T09:03:26;5.28;;;3.70;;
69900;SDS011;57183;50.930;5.406;2022-10-17T09:19:33;8.52;;;3.55;;
69900;SDS011;57183;50.930;5.406;2022-10-17T09:22:09;9.73;;;4.15;;
69900;SDS011;57183;50.930;5.406;2022-10-17T09:24:43;5.70;;;3.03;;
69900;SDS011;57183;50.930;5.406;2022-10-17T09:33:19;8.15;;;3.35;;
69900;SDS011;57183;50.930;5.406;2022-10-17T09:35:49;6.70;;;2.75;;
69900;SDS011;57183;50.930;5.406;2022-10-17T09:38:17;6.20;;;2.95;;
69900;SDS011;57183;50.930;5.406;2022-10-17T09:40:45;5.53;;;3.47;;
69900;SDS011;57183;50.930;5.406;2022-10-17T09:45:50;12.98;;;5.85;;
69900;SDS011;57183;50.930;5.406;2022-10-17T09:49:28;11.52;;;5.25;;
69900;SDS011;57183;50.930;5.406;2022-10-17T09:51:33;9.20;;;5.57;;
69900;SDS011;57183;50.930;5.406;2022-10-17T09:54:08;10.35;;;6.18;;
69900;SDS011;57183;50.930;5.406;2022-10-17T09:59:29;14.18;;;6.97;;
69900;SDS011;57183;50.930;5.406;2022-10-17T10:02:15;12.15;;;7.22;;
69900;SDS011;57183;50.930;5.406;2022-10-17T10:07:37;5.20;;;4.70;;
69900;SDS011;57183;50.930;5.406;2022-10-17T10:10:03;6.90;;;5.93;;
69900;SDS011;57183;50.930;5.406;2022-10-17T10:12:33;7.40;;;5.97;;
69900;SDS011;57183;50.930;5.406;2022-10-17T10:15:01;8.13;;;5.60;;
69900;SDS011;57183;50.930;5.406;2022-10-17T10:17:46;10.77;;;5.07;;
69900;SDS011;57183;50.930;5.406;2022-10-17T10:20:33;7.80;;;5.80;;
69900;SDS011;57183;50.930;5.406;2022-10-17T10:23:15;10.20;;;5.30;;
69900;SDS011;57183;50.930;5.406;2022-10-17T10:25:50;10.73;;;5.95;;
69900;SDS011;57183;50.930;5.406;2022-10-17T10:28:19;9.15;;;6.07;;
69900;SDS011;57183;50.930;5.406;2022-10-17T10:30:48;11.23;;;6.93;;
69900;SDS011;57183;50.930;5.406;2022-10-17T10:33:17;28.20;;;13.00;;
69900;SDS011;57183;50.930;5.406;2022-10-17T10:35:56;18.50;;;10.02;;
69900;SDS011;57183;50.930;5.406;2022-10-17T10:38:29;13.13;;;6.10;;
69900;SDS011;57183;50.930;5.406;2022-10-17T10:41:00;6.35;;;5.32;;
69900;SDS011;57183;50.930;5.406;2022-10-17T10:46:04;10.02;;;5.32;;
69900;SDS011;57183;50.930;5.406;2022-10-17T10:51:28;6.60;;;4.97;;
69900;SDS011;57183;50.930;5.406;2022-10-17T10:59:03;8.20;;;4.28;;
69900;SDS011;57183;50.930;5.406;2022-10-17T11:06:43;5.65;;;3.97;;
69900;SDS011;57183;50.930;5.406;2022-10-17T11:09:31;9.05;;;4.07;;
69900;SDS011;57183;50.930;5.406;2022-10-17T11:12:17;7.63;;;4.68;;
69900;SDS011;57183;50.930;5.406;2022-10-17T11:15:06;8.15;;;3.92;;
69900;SDS011;57183;50.930;5.406;2022-10-17T11:18:06;6.35;;;4.07;;
69900;SDS011;57183;50.930;5.406;2022-10-17T11:23:15;7.22;;;4.32;;
69900;SDS011;57183;50.930;5.406;2022-10-17T11:25:49;6.30;;;4.10;;
69900;SDS011;57183;50.930;5.406;2022-10-17T11:28:17;12.68;;;5.25;;
69900;SDS011;57183;50.930;5.406;2022-10-17T11:33:14;9.63;;;3.78;;
69900;SDS011;57183;50.930;5.406;2022-10-17T11:35:44;3.78;;;3.10;;
69900;SDS011;57183;50.930;5.406;2022-10-17T11:38:16;7.40;;;3.13;;
69900;SDS011;57183;50.930;5.406;2022-10-17T11:40:48;4.20;;;3.75;;
69900;SDS011;57183;50.930;5.406;2022-10-17T11:43:24;8.38;;;4.07;;
69900;SDS011;57183;50.930;5.406;2022-10-17T11:46:05;4.90;;;3.15;;
69900;SDS011;57183;50.930;5.406;2022-10-17T11:51:42;8.45;;;3.28;;
69900;SDS011;57183;50.930;5.406;2022-10-17T12:02:34;4.55;;;3.08;;
69900;SDS011;57183;50.930;5.406;2022-10-17T12:07:41;8.85;;;3.25;;
69900;SDS011;57183;50.930;5.406;2022-10-17T12:10:29;8.77;;;3.30;;
69900;SDS011;57183;50.930;5.406;2022-10-17T12:15:52;6.03;;;3.00;;
69900;SDS011;57183;50.930;5.406;2022-10-17T12:18:19;6.28;;;3.25;;
69900;SDS011;57183;50.930;5.406;2022-10-17T12:20:56;4.80;;;3.13;;
69900;SDS011;57183;50.930;5.406;2022-10-17T12:23:27;6.28;;;2.97;;
69900;SDS011;57183;50.930;5.406;2022-10-17T12:25:54;7.32;;;4.13;;
69900;SDS011;57183;50.930;5.406;2022-10-17T12:31:20;7.32;;;3.22;;
69900;SDS011;57183;50.930;5.406;2022-10-17T12:33:50;6.05;;;3.70;;
69900;SDS011;57183;50.930;5.406;2022-10-17T12:44:50;8.50;;;3.95;;
69900;SDS011;57183;50.930;5.406;2022-10-17T12:52:21;11.07;;;4.63;;
69900;SDS011;57183;50.930;5.406;2022-10-17T12:55:16;10.05;;;4.28;;
69900;SDS011;57183;50.930;5.406;2022-10-17T12:57:47;4.45;;;3.35;;
69900;SDS011;57183;50.930;5.406;2022-10-17T13:00:25;7.20;;;4.10;;
69900;SDS011;57183;50.930;5.406;2022-10-17T13:03:14;8.70;;;4.25;;
69900;SDS011;57183;50.930;5.406;2022-10-17T13:05:50;11.80;;;3.90;;
69900;SDS011;57183;50.930;5.406;2022-10-17T13:08:19;8.17;;;4.27;;
69900;SDS011;57183;50.930;5.406;2022-10-17T13:10:51;7.95;;;4.15;;
69900;SDS011;57183;50.930;5.406;2022-10-17T13:19:02;8.38;;;4.20;;
69900;SDS011;57183;50.930;5.406;2022-10-17T13:21:36;5.90;;;4.07;;
69900;SDS011;57183;50.930;5.406;2022-10-17T13:24:18;9.23;;;4.32;;
69900;SDS011;57183;50.930;5.406;2022-10-17T13:26:57;7.97;;;4.32;;
69900;SDS011;57183;50.930;5.406;2022-10-17T13:29:24;6.60;;;4.75;;
69900;SDS011;57183;50.930;5.406;2022-10-17T13:31:53;4.78;;;4.35;;
69900;SDS011;57183;50.930;5.406;2022-10-17T13:34:22;5.53;;;4.55;;
69900;SDS011;57183;50.930;5.406;2022-10-17T13:36:53;7.68;;;4.82;;
69900;SDS011;57183;50.930;5.406;2022-10-17T13:39:24;6.13;;;4.32;;
69900;SDS011;57183;50.930;5.406;2022-10-17T13:41:53;6.63;;;5.03;;
69900;SDS011;57183;50.930;5.406;2022-10-17T13:44:21;10.30;;;4.90;;
69900;SDS011;57183;50.930;5.406;2022-10-17T13:46:49;10.88;;;5.53;;
69900;SDS011;57183;50.930;5.406;2022-10-17T13:49:16;8.18;;;4.65;;
69900;SDS011;57183;50.930;5.406;2022-10-17T13:51:43;6.00;;;4.78;;
69900;SDS011;57183;50.930;5.406;2022-10-17T13:54:45;9.57;;;5.32;;
69900;SDS011;57183;50.930;5.406;2022-10-17T13:59:49;7.00;;;5.55;;
69900;SDS011;57183;50.930;5.406;2022-10-17T14:02:20;10.55;;;6.13;;
69900;SDS011;57183;50.930;5.406;2022-10-17T14:10:52;9.90;;;7.07;;
69900;SDS011;57183;50.930;5.406;2022-10-17T14:13:03;9.15;;;6.25;;
69900;SDS011;57183;50.930;5.406;2022-10-17T14:15:32;12.02;;;7.20;;
69900;SDS011;57183;50.930;5.406;2022-10-17T14:18:04;8.80;;;7.32;;
69900;SDS011;57183;50.930;5.406;2022-10-17T14:20:31;9.00;;;8.10;;
69900;SDS011;57183;50.930;5.406;2022-10-17T14:22:58;11.20;;;7.80;;
69900;SDS011;57183;50.930;5.406;2022-10-17T14:25:28;11.73;;;7.78;;
69900;SDS011;57183;50.930;5.406;2022-10-17T14:33:05;12.57;;;8.48;;
69900;SDS011;57183;50.930;5.406;2022-10-17T14:35:33;11.32;;;8.45;;
69900;SDS011;57183;50.930;5.406;2022-10-17T14:38:00;14.48;;;8.30;;
69900;SDS011;57183;50.930;5.406;2022-10-17T14:40:28;12.15;;;8.00;;
69900;SDS011;57183;50.930;5.406;2022-10-17T14:42:57;11.63;;;8.00;;
69900;SDS011;57183;50.930;5.406;2022-10-17T14:47:58;10.98;;;7.13;;
69900;SDS011;57183;50.930;5.406;2022-10-17T14:50:31;12.07;;;8.27;;
69900;SDS011;57183;50.930;5.406;2022-10-17T14:53:18;10.57;;;8.38;;
69900;SDS011;57183;50.930;5.406;2022-10-17T14:55:58;10.13;;;6.95;;
69900;SDS011;57183;50.930;5.406;2022-10-17T14:58:29;11.98;;;7.18;;
69900;SDS011;57183;50.930;5.406;2022-10-17T15:00:57;9.93;;;7.25;;
69900;SDS011;57183;50.930;5.406;2022-10-17T15:03:24;12.65;;;7.13;;
69900;SDS011;57183;50.930;5.406;2022-10-17T15:05:50;7.75;;;6.90;;
69900;SDS011;57183;50.930;5.406;2022-10-17T15:08:18;11.43;;;7.72;;
69900;SDS011;57183;50.930;5.406;2022-10-17T15:10:45;9.43;;;7.03;;
69900;SDS011;57183;50.930;5.406;2022-10-17T15:13:12;11.05;;;7.60;;
69900;SDS011;57183;50.930;5.406;2022-10-17T15:15:38;9.75;;;7.93;;
69900;SDS011;57183;50.930;5.406;2022-10-17T15:18:05;11.45;;;7.82;;
69900;SDS011;57183;50.930;5.406;2022-10-17T15:20:32;12.18;;;7.75;;
69900;SDS011;57183;50.930;5.406;2022-10-17T15:22:59;10.68;;;7.30;;
69900;SDS011;57183;50.930;5.406;2022-10-17T15:25:27;11.57;;;7.30;;
69900;SDS011;57183;50.930;5.406;2022-10-17T15:27:54;9.20;;;6.88;;
69900;SDS011;57183;50.930;5.406;2022-10-17T15:30:23;10.18;;;6.80;;
69900;SDS011;57183;50.930;5.406;2022-10-17T15:32:51;7.85;;;6.53;;
69900;SDS011;57183;50.930;5.406;2022-10-17T15:35:17;7.47;;;6.55;;
69900;SDS011;57183;50.930;5.406;2022-10-17T15:37:44;10.85;;;7.25;;
69900;SDS011;57183;50.930;5.406;2022-10-17T15:40:29;9.77;;;6.30;;
69900;SDS011;57183;50.930;5.406;2022-10-17T15:42:55;7.43;;;6.43;;
69900;SDS011;57183;50.930;5.406;2022-10-17T15:45:21;7.13;;;6.47;;
69900;SDS011;57183;50.930;5.406;2022-10-17T15:47:51;6.18;;;5.57;;
69900;SDS011;57183;50.930;5.406;2022-10-17T15:50:23;6.05;;;5.00;;
69900;SDS011;57183;50.930;5.406;2022-10-17T15:52:48;12.20;;;5.47;;
69900;SDS011;57183;50.930;5.406;2022-10-17T15:55:15;7.07;;;4.78;;
69900;SDS011;57183;50.930;5.406;2022-10-17T15:57:42;6.60;;;4.90;;
69900;SDS011;57183;50.930;5.406;2022-10-17T16:00:17;5.85;;;5.38;;
69900;SDS011;57183;50.930;5.406;2022-10-17T16:02:47;5.95;;;5.10;;
69900;SDS011;57183;50.930;5.406;2022-10-17T16:07:42;5.75;;;3.92;;
69900;SDS011;57183;50.930;5.406;2022-10-17T16:10:10;9.30;;;4.65;;
69900;SDS011;57183;50.930;5.406;2022-10-17T16:12:37;8.23;;;4.32;;
69900;SDS011;57183;50.930;5.406;2022-10-17T16:15:06;6.45;;;4.60;;
69900;SDS011;57183;50.930;5.406;2022-10-17T16:17:37;6.63;;;3.47;;
69900;SDS011;57183;50.930;5.406;2022-10-17T16:20:03;4.13;;;3.45;;
69900;SDS011;57183;50.930;5.406;2022-10-17T16:22:29;6.57;;;3.60;;
69900;SDS011;57183;50.930;5.406;2022-10-17T16:25:00;4.32;;;3.67;;
69900;SDS011;57183;50.930;5.406;2022-10-17T16:27:33;8.82;;;3.53;;
69900;SDS011;57183;50.930;5.406;2022-10-17T16:30:03;6.00;;;3.33;;
69900;SDS011;57183;50.930;5.406;2022-10-17T16:32:30;7.22;;;3.15;;
69900;SDS011;57183;50.930;5.406;2022-10-17T16:34:56;4.05;;;3.50;;
69900;SDS011;57183;50.930;5.406;2022-10-17T16:37:23;5.07;;;3.60;;
69900;SDS011;57183;50.930;5.406;2022-10-17T16:39:50;6.28;;;3.25;;
69900;SDS011;57183;50.930;5.406;2022-10-17T16:42:20;5.75;;;3.30;;
69900;SDS011;57183;50.930;5.406;2022-10-17T16:44:46;5.65;;;3.38;;
69900;SDS011;57183;50.930;5.406;2022-10-17T16:47:15;4.35;;;2.70;;
69900;SDS011;57183;50.930;5.406;2022-10-17T16:49:42;3.80;;;2.88;;
69900;SDS011;57183;50.930;5.406;2022-10-17T16:52:08;6.53;;;3.28;;
69900;SDS011;57183;50.930;5.406;2022-10-17T16:54:33;4.70;;;3.70;;
69900;SDS011;57183;50.930;5.406;2022-10-17T16:56:59;4.00;;;3.60;;
69900;SDS011;57183;50.930;5.406;2022-10-17T16:59:26;4.65;;;3.53;;
69900;SDS011;57183;50.930;5.406;2022-10-17T17:01:52;4.05;;;3.70;;
69900;SDS011;57183;50.930;5.406;2022-10-17T17:04:18;5.15;;;4.40;;
69900;SDS011;57183;50.930;5.406;2022-10-17T17:06:44;5.13;;;3.88;;
69900;SDS011;57183;50.930;5.406;2022-10-17T17:09:10;4.88;;;3.42;;
69900;SDS011;57183;50.930;5.406;2022-10-17T17:11:36;4.05;;;3.65;;
69900;SDS011;57183;50.930;5.406;2022-10-17T17:14:02;4.65;;;3.50;;
69900;SDS011;57183;50.930;5.406;2022-10-17T17:16:30;5.22;;;3.50;;
69900;SDS011;57183;50.930;5.406;2022-10-17T17:19:04;4.40;;;2.90;;
69900;SDS011;57183;50.930;5.406;2022-10-17T17:21:35;3.63;;;3.08;;
69900;SDS011;57183;50.930;5.406;2022-10-17T17:24:01;4.25;;;2.65;;
69900;SDS011;57183;50.930;5.406;2022-10-17T17:26:29;4.68;;;2.78;;
69900;SDS011;57183;50.930;5.406;2022-10-17T17:28:58;4.38;;;2.25;;
69900;SDS011;57183;50.930;5.406;2022-10-17T17:31:26;3.70;;;2.78;;
69900;SDS011;57183;50.930;5.406;2022-10-17T17:33:54;4.30;;;2.63;;
69900;SDS011;57183;50.930;5.406;2022-10-17T17:36:21;3.53;;;2.53;;
69900;SDS011;57183;50.930;5.406;2022-10-17T17:38:48;3.05;;;1.98;;